This is the latest recevied weather packets stored in our database for station/object WX2NJ. If no packets are shown the sender has not sent any weather packets the latest 1 day(s).
| Time | Temp. | Humidity | Pressure | Rain* | Wind** | Luminosity | Snow |
|---|---|---|---|---|---|---|---|
| 1778070447 | 20° C | 69% | 1014.2 hPa | 0 mm | - | 125 W/m² | - |
| 1778070144 | 20° C | 69% | 1014.2 hPa | 0 mm | - | 318 W/m² | - |
| 1778069539 | 19.44° C | 71% | 1014.3 hPa | 0 mm | - | 213 W/m² | - |
| 1778068027 | 18.33° C | 73% | 1014.5 hPa | 0 mm | - | 132 W/m² | - |
| 1778067423 | 18.89° C | 73% | 1014.4 hPa | 0 mm | - | 117 W/m² | - |
| 1778066211 | 17.78° C | 75% | 1014.4 hPa | 0 mm | - | 100 W/m² | - |
| 1778064696 | 17.22° C | 78% | 1014.3 hPa | 0 mm | - | 62 W/m² | - |
| 1778063789 | 16.11° C | 82% | 1014.5 hPa | 0 mm | - | 23 W/m² | - |
| 1778063486 | 16.11° C | 82% | 1014.5 hPa | 0 mm | - | 17 W/m² | - |
| 1778063184 | 16.11° C | 82% | 1014.3 hPa | 0 mm | - | 10 W/m² | - |
| 1778062881 | 16.11° C | 82% | 1014.4 hPa | 0 mm | - | 6 W/m² | - |
| 1778061066 | 16.11° C | 82% | 1014.2 hPa | 0 mm | - | 0 W/m² | - |
| 1778060159 | 16.11° C | 83% | 1014 hPa | 0 mm | - | 0 W/m² | - |
| 1778059856 | 16.11° C | 83% | 1014.2 hPa | 0 mm | - | 0 W/m² | - |
| 1778059554 | 16.11° C | 83% | 1014.2 hPa | 0 mm | - | 0 W/m² | - |
| 1778059250 | 16.11° C | 83% | 1014.4 hPa | 0 mm | - | 0 W/m² | - |
| 1778058646 | 16.11° C | 83% | 1014.3 hPa | 0 mm | - | 0 W/m² | - |
| 1778057433 | 16.11° C | 83% | 1014.5 hPa | 0 mm | - | 0 W/m² | - |
| 1778057130 | 16.11° C | 83% | 1014.5 hPa | 0 mm | - | 0 W/m² | - |
| 1778056221 | 16.11° C | 83% | 1014.6 hPa | 0 mm | - | 0 W/m² | - |
| 1778055613 | 16.11° C | 83% | 1014.6 hPa | 0 mm | - | 0 W/m² | - |
| 1778055009 | 16.11° C | 82% | 1014.6 hPa | 0 mm | - | 0 W/m² | - |
| 1778054706 | 16.11° C | 82% | 1014.7 hPa | 0 mm | - | 0 W/m² | - |
| 1778054101 | 16.11° C | 82% | 1014.5 hPa | 0 mm | - | 0 W/m² | - |
| 1778053192 | 16.11° C | 81% | 1014.6 hPa | 0 mm | - | 0 W/m² | - |
* Rain latest hour (hover to see other rain measurements)
** Current wind speed in m/s (hover to see current wind gust speed)